createdAt,value
2022-10-11T00:02:59.051Z,4.22
2022-10-11T00:08:19.993Z,4.00
2022-10-11T00:13:40.406Z,3.58
2022-10-11T00:19:01.115Z,3.60
2022-10-11T00:24:21.951Z,4.38
2022-10-11T00:29:42.585Z,5.00
2022-10-11T00:35:06.381Z,4.65
2022-10-11T00:40:27.038Z,4.70
2022-10-11T00:45:56.686Z,4.75
2022-10-11T00:51:34.151Z,4.53
2022-10-11T00:57:00.978Z,5.03
2022-10-11T01:02:23.335Z,5.28
2022-10-11T01:07:46.972Z,4.72
2022-10-11T01:13:33.939Z,5.40
2022-10-11T01:19:04.926Z,4.68
2022-10-11T01:24:44.647Z,5.13
2022-10-11T01:30:22.249Z,5.40
2022-10-11T01:36:06.994Z,5.20
2022-10-11T01:41:35.482Z,5.60
2022-10-11T01:46:56.219Z,5.25
2022-10-11T01:52:16.841Z,4.90
2022-10-11T01:58:13.404Z,5.35
2022-10-11T02:03:45.836Z,5.20
2022-10-11T02:09:16.566Z,5.53
2022-10-11T02:14:43.488Z,5.07
2022-10-11T02:20:11.321Z,5.07
2022-10-11T02:25:35.127Z,5.22
2022-10-11T02:30:58.476Z,5.40
2022-10-11T02:36:33.050Z,5.20
2022-10-11T02:41:59.762Z,5.78
2022-10-11T02:47:21.093Z,5.63
2022-10-11T02:52:41.726Z,5.43
2022-10-11T02:58:03.060Z,5.57
2022-10-11T03:03:23.635Z,5.22
2022-10-11T03:08:44.376Z,5.57
2022-10-11T03:14:04.992Z,5.15
2022-10-11T03:19:25.759Z,5.20
2022-10-11T03:24:46.504Z,5.18
2022-10-11T03:30:09.026Z,5.30
2022-10-11T03:35:29.906Z,5.13
2022-10-11T03:40:50.542Z,4.95
2022-10-11T03:46:11.149Z,5.05
2022-10-11T03:51:31.905Z,4.97
2022-10-11T03:56:52.578Z,4.47
2022-10-11T04:02:13.257Z,4.72
2022-10-11T04:07:33.963Z,5.38
2022-10-11T04:12:54.764Z,5.13
2022-10-11T04:18:15.596Z,5.03
2022-10-11T04:23:36.017Z,5.07
2022-10-11T04:28:56.940Z,5.60
2022-10-11T04:34:18.111Z,4.57
2022-10-11T04:39:39.013Z,5.53
2022-10-11T04:44:59.565Z,5.53
2022-10-11T04:50:20.172Z,5.28
2022-10-11T04:55:40.807Z,4.80
2022-10-11T05:01:01.771Z,4.70
2022-10-11T05:06:22.528Z,4.80
2022-10-11T05:11:43.335Z,5.05
2022-10-11T05:17:04.020Z,4.47
2022-10-11T05:22:24.692Z,4.93
2022-10-11T05:27:45.513Z,4.57
2022-10-11T05:33:06.135Z,4.20
2022-10-11T05:38:27.440Z,5.10
2022-10-11T05:43:47.917Z,4.20
2022-10-11T05:49:08.564Z,5.07
2022-10-11T05:54:31.061Z,4.97
2022-10-11T05:59:52.323Z,4.97
2022-10-11T06:05:13.878Z,5.68
2022-10-11T06:10:35.519Z,5.05
2022-10-11T06:15:56.098Z,5.88
2022-10-11T06:21:16.660Z,6.45
2022-10-11T06:26:37.409Z,6.22
2022-10-11T06:31:58.611Z,5.68
2022-10-11T06:37:19.314Z,5.80
2022-10-11T06:42:40.181Z,6.20
2022-10-11T06:48:01.919Z,6.35
2022-10-11T06:53:22.750Z,5.75
2022-10-11T06:58:43.690Z,6.10
2022-10-11T07:04:05.007Z,5.80
2022-10-11T07:09:26.001Z,5.65
2022-10-11T07:14:46.795Z,6.32
2022-10-11T07:20:07.809Z,5.13
2022-10-11T07:25:28.581Z,5.70
2022-10-11T07:30:49.626Z,5.03
2022-10-11T07:36:12.083Z,5.32
2022-10-11T07:41:33.134Z,4.80
2022-10-11T07:46:54.228Z,4.88
2022-10-11T07:52:15.058Z,4.85
2022-10-11T07:57:35.982Z,4.75
2022-10-11T08:02:56.610Z,4.57
2022-10-11T08:08:17.179Z,5.43
2022-10-11T08:13:37.868Z,5.72
2022-10-11T08:18:58.503Z,5.60
2022-10-11T08:24:20.983Z,5.10
2022-10-11T08:29:41.973Z,5.75
2022-10-11T08:35:02.871Z,5.88
2022-10-11T08:40:24.834Z,6.55
2022-10-11T08:45:55.923Z,5.45
2022-10-11T08:51:34.053Z,6.75
2022-10-11T08:56:54.879Z,6.80
2022-10-11T09:02:55.761Z,7.22
2022-10-11T09:08:29.026Z,7.00
2022-10-11T09:13:56.427Z,6.38
2022-10-11T09:19:38.708Z,8.10
2022-10-11T09:25:18.491Z,6.32
2022-10-11T09:30:47.187Z,7.28
2022-10-11T09:36:26.733Z,5.97
2022-10-11T09:41:53.750Z,7.68
2022-10-11T09:47:33.137Z,7.10
2022-10-11T09:52:59.838Z,7.77
2022-10-11T09:58:26.425Z,7.30
2022-10-11T10:03:47.569Z,7.30
2022-10-11T10:09:28.787Z,6.50
2022-10-11T10:15:19.600Z,7.65
2022-10-11T10:20:40.462Z,6.10
2022-10-11T10:26:13.361Z,7.03
2022-10-11T10:37:43.518Z,7.90
2022-10-11T10:43:04.573Z,6.32
2022-10-11T10:49:02.015Z,6.10
2022-10-11T10:54:42.180Z,5.45
2022-10-11T11:00:16.392Z,6.15
2022-10-11T11:05:43.848Z,4.65
2022-10-11T11:11:23.205Z,4.95
2022-10-11T11:17:03.048Z,4.77
2022-10-11T11:22:42.484Z,4.47
2022-10-11T11:28:31.356Z,4.43
2022-10-11T11:34:22.204Z,3.92
2022-10-11T11:39:48.598Z,3.80
2022-10-11T11:45:21.414Z,3.22
2022-10-11T11:50:46.466Z,3.22
2022-10-11T11:56:27.627Z,3.08
2022-10-11T12:02:25.862Z,3.50
2022-10-11T12:08:30.337Z,2.90
2022-10-11T12:13:54.835Z,2.92
2022-10-11T12:19:15.744Z,2.50
2022-10-11T12:25:18.499Z,1.95
2022-10-11T12:30:44.384Z,2.08
2022-10-11T12:36:32.761Z,2.00
2022-10-11T12:42:07.771Z,1.73
2022-10-11T12:47:49.188Z,1.20
2022-10-11T12:53:28.732Z,1.23
2022-10-11T12:58:50.010Z,1.80
2022-10-11T13:04:11.838Z,1.80
2022-10-11T13:09:39.618Z,1.80
2022-10-11T13:15:07.556Z,1.95
2022-10-11T13:20:37.501Z,2.10
2022-10-11T13:26:02.329Z,1.85
2022-10-11T13:31:24.950Z,2.15
2022-10-11T13:36:45.771Z,1.80
2022-10-11T13:42:13.856Z,1.77
2022-10-11T13:47:35.350Z,2.20
2022-10-11T13:53:00.871Z,2.35
2022-10-11T13:58:36.283Z,2.08
2022-10-11T14:04:04.062Z,2.08
2022-10-11T14:09:27.704Z,1.80
2022-10-11T14:14:49.198Z,1.60
2022-10-11T14:20:17.645Z,2.22
2022-10-11T14:25:38.254Z,2.70
2022-10-11T14:30:59.290Z,2.92
2022-10-11T14:36:22.531Z,2.35
2022-10-11T14:41:46.537Z,2.30
2022-10-11T14:47:08.765Z,2.35
2022-10-11T14:52:29.695Z,2.83
2022-10-11T14:57:51.036Z,2.55
2022-10-11T15:03:11.890Z,1.92
2022-10-11T15:08:32.678Z,1.83
2022-10-11T15:13:53.538Z,2.22
2022-10-11T15:19:17.027Z,3.05
2022-10-11T15:24:38.099Z,1.60
2022-10-11T15:29:58.657Z,2.05
2022-10-11T15:35:20.916Z,2.72
2022-10-11T15:40:41.605Z,1.90
2022-10-11T15:46:03.197Z,2.10
2022-10-11T15:51:24.538Z,2.35
2022-10-11T15:56:45.138Z,1.85
2022-10-11T16:02:06.055Z,2.40
2022-10-11T16:07:26.931Z,2.05
2022-10-11T16:12:48.245Z,2.15
2022-10-11T16:18:11.704Z,1.90
2022-10-11T16:23:32.537Z,2.83
2022-10-11T16:28:53.205Z,2.60
2022-10-11T16:34:13.722Z,2.15
2022-10-11T16:39:34.876Z,3.00
2022-10-11T16:44:55.447Z,2.92
2022-10-11T16:50:16.161Z,6.00
2022-10-11T16:55:39.577Z,6.88
2022-10-11T17:01:00.578Z,11.35
2022-10-11T17:06:21.935Z,7.10
2022-10-11T17:11:43.970Z,8.60
2022-10-11T17:17:05.722Z,5.88
2022-10-11T17:22:26.787Z,6.15
2022-10-11T17:27:47.751Z,5.15
2022-10-11T17:33:09.169Z,4.72
2022-10-11T17:38:29.860Z,3.47
2022-10-11T17:43:51.503Z,4.07
2022-10-11T17:49:12.799Z,3.90
2022-10-11T17:54:33.796Z,4.35
2022-10-11T17:59:54.389Z,3.78
2022-10-11T18:05:16.783Z,3.30
2022-10-11T18:10:38.014Z,4.20
2022-10-11T18:15:58.645Z,7.50
2022-10-11T18:21:19.661Z,15.95
2022-10-11T18:26:41.390Z,10.00
2022-10-11T18:32:02.230Z,20.80
2022-10-11T18:37:22.856Z,11.55
2022-10-11T18:42:43.634Z,13.90
2022-10-11T18:48:04.741Z,11.93
2022-10-11T18:53:25.653Z,10.07
2022-10-11T18:58:47.298Z,9.25
2022-10-11T19:04:09.877Z,6.90
2022-10-11T19:09:31.002Z,6.28
2022-10-11T19:14:52.149Z,13.05
2022-10-11T19:20:12.866Z,14.02
2022-10-11T19:25:36.488Z,14.13
2022-10-11T19:31:05.778Z,13.60
2022-10-11T19:36:27.256Z,13.13
2022-10-11T19:41:49.146Z,9.80
2022-10-11T19:47:10.155Z,8.13
2022-10-11T19:52:32.806Z,6.22
2022-10-11T19:57:53.729Z,5.72
2022-10-11T20:03:14.570Z,5.25
2022-10-11T20:08:36.324Z,6.93
2022-10-11T20:13:57.396Z,6.50
2022-10-11T20:19:18.883Z,7.10
2022-10-11T20:24:39.482Z,16.55
2022-10-11T20:30:00.028Z,17.92
2022-10-11T20:35:20.782Z,10.60
2022-10-11T20:40:41.593Z,7.22
2022-10-11T20:46:07.311Z,9.02
2022-10-11T20:51:30.253Z,8.75
2022-10-11T20:56:50.903Z,7.55
2022-10-11T21:02:14.351Z,7.57
2022-10-11T21:07:39.069Z,6.38
2022-10-11T21:12:59.897Z,8.13
2022-10-11T21:18:20.610Z,8.30
2022-10-11T21:23:41.671Z,6.70
2022-10-11T21:29:04.083Z,5.32
2022-10-11T21:34:25.160Z,5.38
2022-10-11T21:39:45.760Z,5.90
2022-10-11T21:45:06.642Z,5.55
2022-10-11T21:50:27.447Z,6.40
2022-10-11T21:55:48.227Z,6.47
2022-10-11T22:01:10.403Z,6.47
2022-10-11T22:06:31.484Z,3.42
2022-10-11T22:11:52.430Z,2.88
2022-10-11T22:17:12.826Z,5.63
2022-10-11T22:22:33.707Z,5.85
2022-10-11T22:27:54.566Z,2.90
2022-10-11T22:33:17.181Z,2.13
2022-10-11T22:38:39.988Z,2.15
2022-10-11T22:44:01.447Z,1.65
2022-10-11T22:49:22.071Z,1.33
2022-10-11T22:54:43.139Z,1.52
2022-10-11T23:00:04.421Z,1.58
2022-10-11T23:05:24.971Z,1.88
2022-10-11T23:10:45.792Z,1.85
2022-10-11T23:16:09.096Z,1.48
2022-10-11T23:21:29.934Z,1.80
2022-10-11T23:26:50.560Z,2.22
2022-10-11T23:32:11.673Z,2.78
2022-10-11T23:37:32.421Z,2.58
2022-10-11T23:42:53.026Z,2.75
2022-10-11T23:48:13.739Z,1.73
2022-10-11T23:53:35.566Z,1.80
2022-10-11T23:58:56.521Z,2.17
